Estación de San Javier
Ultimos registro cada 15 minutos 30
| N° | Estación | Fecha / Hora | Temperatura | Humedad | Lluvia | Velocidad | Dirección | Radiación | Presion |
| 30 | San Javier | 06-05-2026 07:15 | 12,9 | 93 | 0,4 | 0,4 | 241 | 0 | 1012,5 |
| 29 | San Javier | 06-05-2026 07:00 | 12,9 | 92 | 1,8 | 3,1 | 217 | 0 | 1012,1 |
| 28 | San Javier | 06-05-2026 06:45 | 13,1 | 91 | 1,4 | 0,9 | 218 | 0 | 1012,2 |
| 27 | San Javier | 06-05-2026 06:30 | 13,3 | 91 | 0,6 | 0,4 | 171 | 0 | 1011,9 |
| 26 | San Javier | 06-05-2026 06:15 | 13,3 | 90 | 0,2 | 0,4 | 187 | 0 | 1011,8 |
| 25 | San Javier | 06-05-2026 06:00 | 13,6 | 89 | 1,2 | 1,8 | 225 | 0 | 1011,7 |
| 24 | San Javier | 06-05-2026 05:45 | 14,1 | 86 | 2,2 | 0,9 | 158 | 0 | 1012 |
| 23 | San Javier | 06-05-2026 05:30 | 14,3 | 84 | 0 | 0,9 | 219 | 0 | 1011,5 |
| 22 | San Javier | 06-05-2026 05:15 | 14,7 | 83 | 0 | 0,9 | 153 | 0 | 1011,7 |
| 21 | San Javier | 06-05-2026 05:00 | 15,2 | 79 | 0 | 0,4 | 199 | 0 | 1011,9 |
| 20 | San Javier | 06-05-2026 04:45 | 15,3 | 79 | 0 | 0,9 | 234 | 0 | 1011,6 |
| 19 | San Javier | 06-05-2026 04:30 | 15,1 | 80 | 0 | 2,2 | 212 | 0 | 1011,3 |
| 18 | San Javier | 06-05-2026 04:15 | 14,6 | 82 | 0 | 1,3 | 219 | 0 | 1011,6 |
| 17 | San Javier | 06-05-2026 04:00 | 14,6 | 83 | 0 | 0,9 | 234 | 0 | 1011,9 |
| 16 | San Javier | 06-05-2026 03:45 | 14,6 | 82 | 0 | 1,3 | 228 | 0 | 1012,3 |
| 15 | San Javier | 06-05-2026 03:30 | 14,7 | 82 | 0 | 1,3 | 223 | 0 | 1012,3 |
| 14 | San Javier | 06-05-2026 03:15 | 14,7 | 82 | 0 | 1,8 | 236 | 0 | 1012,5 |
| 13 | San Javier | 06-05-2026 03:00 | 14,7 | 82 | 0 | 1,3 | 219 | 0 | 1012,5 |
| 12 | San Javier | 06-05-2026 02:45 | 14,7 | 82 | 0 | 0,9 | 355 | 0 | 1012,7 |
| 11 | San Javier | 06-05-2026 02:30 | 14,6 | 82 | 0 | 1,8 | 236 | 0 | 1012,6 |
| 10 | San Javier | 06-05-2026 02:15 | 14,6 | 83 | 0 | 0,4 | 338 | 0 | 1012,5 |
| 9 | San Javier | 06-05-2026 02:00 | 14,3 | 84 | 0 | 0,4 | 248 | 0 | 1012,6 |
| 8 | San Javier | 06-05-2026 01:45 | 14,1 | 85 | 0 | 0,4 | 213 | 0 | 1012,6 |
| 7 | San Javier | 06-05-2026 01:30 | 13,9 | 85 | 0 | 0,4 | 258 | 0 | 1012,6 |
| 6 | San Javier | 06-05-2026 01:15 | 13,8 | 86 | 0 | 0,9 | 257 | 0 | 1012,8 |
| 5 | San Javier | 06-05-2026 01:00 | 13,7 | 86 | 0 | 1,3 | 238 | 0 | 1012,8 |
| 4 | San Javier | 06-05-2026 00:45 | 13,4 | 87 | 0 | 1,3 | 242 | 0 | 1013 |
| 3 | San Javier | 06-05-2026 00:30 | 13,3 | 87 | 0 | 0 | 219 | 0 | 1013,3 |
| 2 | San Javier | 06-05-2026 00:15 | 13,6 | 86 | 0 | 0 | 264 | 0 | 1013,4 |
| 1 | San Javier | 06-05-2026 00:00 | 13,9 | 85 | 0 | 0 | 223 | 0 | 1013,4 |